createdAt,value
2018-09-18T00:01:08.388Z,15.78
2018-09-18T00:03:37.307Z,15.76
2018-09-18T00:06:06.314Z,15.75
2018-09-18T00:08:35.282Z,15.76
2018-09-18T00:11:04.228Z,15.71
2018-09-18T00:13:33.134Z,15.74
2018-09-18T00:16:02.138Z,15.72
2018-09-18T00:18:31.121Z,15.65
2018-09-18T00:21:00.072Z,15.67
2018-09-18T00:23:29.031Z,15.66
2018-09-18T00:25:57.969Z,15.64
2018-09-18T00:28:26.903Z,15.56
2018-09-18T00:30:55.783Z,15.56
2018-09-18T00:33:24.696Z,15.52
2018-09-18T00:35:53.637Z,15.48
2018-09-18T00:38:22.729Z,15.49
2018-09-18T00:40:51.649Z,15.49
2018-09-18T00:43:20.623Z,15.49
2018-09-18T00:45:49.584Z,15.47
2018-09-18T00:48:18.513Z,15.46
2018-09-18T00:50:47.413Z,15.47
2018-09-18T00:53:16.332Z,15.46
2018-09-18T00:55:45.275Z,15.44
2018-09-18T00:58:14.272Z,15.40
2018-09-18T01:00:43.192Z,15.46
2018-09-18T01:03:12.132Z,15.45
2018-09-18T01:05:41.052Z,15.45
2018-09-18T01:08:10.030Z,15.44
2018-09-18T01:10:38.949Z,15.47
2018-09-18T01:13:07.875Z,15.48
2018-09-18T01:15:36.828Z,15.46
2018-09-18T01:18:05.808Z,15.49
2018-09-18T01:20:34.704Z,15.49
2018-09-18T01:23:03.664Z,15.50
2018-09-18T01:25:32.593Z,15.48
2018-09-18T01:28:01.511Z,15.46
2018-09-18T01:30:30.442Z,15.47
2018-09-18T01:32:59.364Z,15.40
2018-09-18T01:35:28.254Z,15.40
2018-09-18T01:37:57.244Z,15.45
2018-09-18T01:40:26.273Z,15.44
2018-09-18T01:42:55.182Z,15.41
2018-09-18T01:45:30.132Z,15.41
2018-09-18T01:47:59.061Z,15.36
2018-09-18T01:50:27.968Z,15.29
2018-09-18T01:52:56.907Z,15.27
2018-09-18T01:55:25.925Z,15.20
2018-09-18T01:57:54.824Z,15.19
2018-09-18T02:00:23.786Z,15.17
2018-09-18T02:02:52.754Z,15.16
2018-09-18T02:05:21.753Z,15.12
2018-09-18T02:07:50.659Z,15.11
2018-09-18T02:10:19.607Z,15.10
2018-09-18T02:12:48.532Z,15.08
2018-09-18T02:15:17.486Z,15.12
2018-09-18T02:17:46.530Z,15.11
2018-09-18T02:20:15.439Z,15.13
2018-09-18T02:22:44.368Z,15.06
2018-09-18T02:25:13.376Z,15.03
2018-09-18T02:27:42.364Z,15.01
2018-09-18T02:30:11.270Z,14.99
2018-09-18T02:32:40.306Z,14.98
2018-09-18T02:35:09.246Z,15.02
2018-09-18T02:37:38.190Z,15.00
2018-09-18T02:40:07.325Z,15.03
2018-09-18T02:42:36.252Z,15.02
2018-09-18T02:45:05.168Z,14.91
2018-09-18T02:47:34.075Z,14.92
2018-09-18T02:50:02.996Z,14.93
2018-09-18T02:52:31.908Z,14.93
2018-09-18T02:55:00.845Z,14.88
2018-09-18T02:57:29.829Z,14.92
2018-09-18T02:59:58.753Z,14.88
2018-09-18T03:02:27.661Z,14.91
2018-09-18T03:04:56.592Z,14.89
2018-09-18T03:07:25.517Z,14.91
2018-09-18T03:09:54.844Z,14.90
2018-09-18T03:12:23.741Z,14.95
2018-09-18T03:14:52.675Z,14.94
2018-09-18T03:17:21.674Z,14.91
2018-09-18T03:19:50.687Z,14.86
2018-09-18T03:22:19.611Z,14.89
2018-09-18T03:24:48.518Z,14.79
2018-09-18T03:27:17.554Z,14.71
2018-09-18T03:29:46.456Z,14.71
2018-09-18T03:32:15.389Z,14.72
2018-09-18T03:34:44.330Z,14.73
2018-09-18T03:37:13.290Z,14.74
2018-09-18T03:39:42.225Z,14.69
2018-09-18T03:42:11.240Z,14.64
2018-09-18T03:44:40.154Z,14.74
2018-09-18T03:47:09.089Z,14.71
2018-09-18T03:49:38.044Z,14.72
2018-09-18T03:52:07.073Z,14.73
2018-09-18T03:54:36.022Z,14.72
2018-09-18T03:57:04.953Z,14.70
2018-09-18T03:59:33.989Z,14.66
2018-09-18T04:02:02.912Z,14.69
2018-09-18T04:04:31.880Z,14.64
2018-09-18T04:07:00.893Z,14.68
2018-09-18T04:09:29.873Z,14.66
2018-09-18T04:11:58.813Z,14.61
2018-09-18T04:14:27.722Z,14.65
2018-09-18T04:16:56.631Z,14.59
2018-09-18T04:19:25.602Z,14.60
2018-09-18T04:21:55.386Z,14.55
2018-09-18T04:24:24.349Z,14.53
2018-09-18T04:26:53.287Z,14.57
2018-09-18T04:29:22.243Z,14.58
2018-09-18T04:31:51.172Z,14.53
2018-09-18T04:34:20.221Z,14.50
2018-09-18T04:36:49.217Z,14.46
2018-09-18T04:39:18.164Z,14.43
2018-09-18T04:41:47.082Z,14.44
2018-09-18T04:44:16.195Z,14.47
2018-09-18T04:46:45.104Z,14.53
2018-09-18T04:49:14.074Z,14.48
2018-09-18T04:51:43.053Z,14.55
2018-09-18T04:54:12.000Z,14.68
2018-09-18T04:56:40.916Z,14.72
2018-09-18T04:59:09.892Z,14.79
2018-09-18T05:01:39.199Z,14.73
2018-09-18T05:04:08.410Z,14.67
2018-09-18T05:06:37.380Z,14.71
2018-09-18T05:09:08.433Z,14.70
2018-09-18T05:11:37.342Z,14.73
2018-09-18T05:14:06.379Z,14.74
2018-09-18T05:16:35.407Z,14.77
2018-09-18T05:19:04.390Z,14.73
2018-09-18T05:21:33.326Z,14.77
2018-09-18T05:24:02.496Z,14.86
2018-09-18T05:26:31.467Z,14.91
2018-09-18T05:29:00.383Z,15.01
2018-09-18T05:31:29.360Z,15.03
2018-09-18T05:33:58.286Z,15.13
2018-09-18T05:36:27.199Z,15.19
2018-09-18T05:38:56.119Z,15.26
2018-09-18T05:41:25.574Z,15.36
2018-09-18T05:43:54.490Z,15.45
2018-09-18T05:46:23.626Z,15.53
2018-09-18T05:48:52.604Z,15.67
2018-09-18T05:51:21.804Z,15.79
2018-09-18T05:53:50.705Z,15.94
2018-09-18T05:56:19.652Z,16.04
2018-09-18T05:58:48.578Z,16.11
2018-09-18T06:01:17.835Z,16.35
2018-09-18T06:03:46.737Z,16.48
2018-09-18T06:06:15.632Z,16.56
2018-09-18T06:08:44.564Z,16.88
2018-09-18T06:11:13.496Z,17.09
2018-09-18T06:13:42.428Z,17.59
2018-09-18T06:16:11.561Z,17.89
2018-09-18T06:18:40.539Z,18.08
2018-09-18T06:21:09.748Z,18.38
2018-09-18T06:23:38.806Z,19.06
2018-09-18T06:26:07.761Z,19.27
2018-09-18T06:28:36.636Z,19.83
2018-09-18T06:31:05.813Z,20.26
2018-09-18T06:33:34.743Z,20.62
2018-09-18T06:36:03.669Z,20.27
2018-09-18T06:38:32.605Z,20.67
2018-09-18T06:41:01.655Z,20.56
2018-09-18T06:43:30.574Z,20.21
2018-09-18T06:45:59.494Z,20.96
2018-09-18T06:48:28.433Z,21.31
2018-09-18T06:50:57.431Z,21.59
2018-09-18T06:53:26.658Z,21.35
2018-09-18T06:55:55.626Z,22.02
2018-09-18T06:58:24.606Z,22.89
2018-09-18T07:00:53.545Z,22.72
2018-09-18T07:03:22.859Z,23.57
2018-09-18T07:05:51.789Z,23.06
2018-09-18T07:08:20.746Z,23.29
2018-09-18T07:10:49.828Z,23.27
2018-09-18T07:13:19.067Z,22.96
2018-09-18T07:15:47.993Z,23.57
2018-09-18T07:18:16.951Z,23.53
2018-09-18T07:20:46.743Z,23.83
2018-09-18T07:23:15.956Z,24.01
2018-09-18T07:25:44.895Z,24.44
2018-09-18T07:28:14.908Z,25.65
2018-09-18T07:30:44.000Z,25.85
2018-09-18T07:33:13.264Z,25.86
2018-09-18T07:35:42.288Z,25.45
2018-09-18T07:38:11.281Z,25.68
2018-09-18T07:40:40.354Z,25.04
2018-09-18T07:43:09.614Z,25.33
2018-09-18T07:45:38.550Z,25.97
2018-09-18T07:48:07.469Z,26.64
2018-09-18T07:50:36.593Z,25.74
2018-09-18T07:53:05.876Z,25.71
2018-09-18T07:55:34.883Z,25.37
2018-09-18T07:58:03.813Z,26.17
2018-09-18T08:00:32.736Z,27.39
2018-09-18T08:03:01.708Z,26.85
2018-09-18T08:05:30.633Z,26.79
2018-09-18T08:07:59.562Z,26.68
2018-09-18T08:10:28.489Z,25.38
2018-09-18T08:12:57.447Z,26.27
2018-09-18T08:15:30.632Z,25.91
2018-09-18T08:17:59.564Z,25.85
2018-09-18T08:20:28.480Z,26.11
2018-09-18T08:22:57.400Z,25.68
2018-09-18T08:25:26.352Z,25.85
2018-09-18T08:27:55.272Z,25.51
2018-09-18T08:30:24.197Z,26.52
2018-09-18T08:32:53.133Z,26.97
2018-09-18T08:35:22.051Z,27.08
2018-09-18T08:37:50.975Z,26.76
2018-09-18T08:40:19.892Z,28.66
2018-09-18T08:42:48.922Z,29.00
2018-09-18T08:45:17.886Z,29.34
2018-09-18T08:47:46.883Z,29.38
2018-09-18T08:50:15.841Z,27.67
2018-09-18T08:52:44.774Z,26.67
2018-09-18T08:55:13.682Z,26.35
2018-09-18T08:57:42.603Z,27.41
2018-09-18T09:00:11.614Z,28.57
2018-09-18T09:02:40.520Z,28.60
2018-09-18T09:05:09.555Z,29.01
2018-09-18T09:07:38.552Z,29.45
2018-09-18T09:10:07.462Z,30.82
2018-09-18T09:12:36.376Z,31.22
2018-09-18T09:15:05.306Z,30.59
2018-09-18T09:17:34.182Z,30.32
2018-09-18T09:20:03.504Z,30.47
2018-09-18T09:22:32.536Z,30.96
2018-09-18T09:25:01.525Z,30.93
2018-09-18T09:27:30.508Z,30.66
2018-09-18T09:29:59.813Z,31.21
2018-09-18T09:32:28.955Z,30.04
2018-09-18T09:34:58.127Z,30.27
2018-09-18T09:37:27.044Z,30.34
2018-09-18T09:39:55.965Z,30.53
2018-09-18T09:42:24.922Z,31.70
2018-09-18T09:44:53.855Z,32.71
2018-09-18T09:47:22.782Z,31.88
2018-09-18T09:49:52.348Z,31.45
2018-09-18T09:52:21.500Z,30.77
2018-09-18T09:54:50.415Z,30.61
2018-09-18T09:57:19.349Z,31.34
2018-09-18T09:59:48.317Z,32.91
2018-09-18T10:02:18.642Z,33.15
2018-09-18T10:04:47.597Z,32.77
2018-09-18T10:07:16.508Z,33.28
2018-09-18T10:09:45.411Z,33.93
2018-09-18T10:12:14.340Z,34.17
2018-09-18T10:14:43.253Z,34.28
2018-09-18T10:17:12.165Z,34.12
2018-09-18T10:19:41.076Z,34.04
2018-09-18T10:22:09.999Z,35.56
2018-09-18T10:24:38.911Z,35.23
2018-09-18T10:27:07.903Z,34.39
2018-09-18T10:29:36.766Z,34.24
2018-09-18T10:32:05.806Z,33.82
2018-09-18T10:34:34.703Z,33.14
2018-09-18T10:37:03.642Z,33.79
2018-09-18T10:39:32.680Z,34.61
2018-09-18T10:42:01.655Z,34.73
2018-09-18T10:44:30.493Z,34.85
2018-09-18T10:46:59.520Z,34.89
2018-09-18T10:49:28.879Z,35.29
2018-09-18T10:51:57.719Z,33.99
2018-09-18T10:54:26.637Z,33.86
2018-09-18T10:56:55.567Z,33.52
2018-09-18T10:59:24.535Z,34.15
2018-09-18T11:01:53.774Z,35.33
2018-09-18T11:04:22.785Z,34.88
2018-09-18T11:06:51.785Z,34.42
2018-09-18T11:09:20.759Z,33.93
2018-09-18T11:11:49.733Z,35.19
2018-09-18T11:14:18.617Z,35.45
2018-09-18T11:16:47.430Z,35.25
2018-09-18T11:19:16.487Z,34.71
2018-09-18T11:21:45.466Z,34.79
2018-09-18T11:24:14.357Z,36.47
2018-09-18T11:26:43.292Z,36.43
2018-09-18T11:29:12.202Z,36.27
2018-09-18T11:31:41.203Z,35.80
2018-09-18T11:34:10.147Z,34.17
2018-09-18T11:36:39.069Z,34.86
2018-09-18T11:39:08.044Z,35.90
2018-09-18T11:41:36.973Z,36.73
2018-09-18T11:44:05.919Z,38.17
2018-09-18T11:46:34.890Z,37.41
2018-09-18T11:49:03.779Z,36.30
2018-09-18T11:51:32.722Z,35.70
2018-09-18T11:54:01.697Z,36.09
2018-09-18T11:56:30.680Z,37.01
2018-09-18T11:58:59.569Z,37.23
2018-09-18T12:01:28.560Z,37.61
2018-09-18T12:03:57.456Z,38.22
2018-09-18T12:06:26.380Z,37.11
2018-09-18T12:08:55.292Z,36.68
2018-09-18T12:11:24.189Z,36.77
2018-09-18T12:13:53.096Z,37.38
2018-09-18T12:16:22.011Z,38.06
2018-09-18T12:18:50.942Z,37.97
2018-09-18T12:21:19.836Z,36.98
2018-09-18T12:23:48.723Z,37.42
2018-09-18T12:26:17.630Z,36.59
2018-09-18T12:28:46.549Z,35.83
2018-09-18T12:31:15.500Z,37.34
2018-09-18T12:33:44.437Z,36.95
2018-09-18T12:36:13.361Z,36.81
2018-09-18T12:38:42.313Z,35.58
2018-09-18T12:41:11.270Z,35.57
2018-09-18T12:43:40.243Z,36.01
2018-09-18T12:46:09.168Z,36.39
2018-09-18T12:48:38.129Z,36.34
2018-09-18T12:51:07.015Z,35.93
2018-09-18T12:53:35.982Z,35.75
2018-09-18T12:56:04.924Z,35.76
2018-09-18T12:58:33.803Z,36.60
2018-09-18T13:01:02.665Z,38.25
2018-09-18T13:03:31.569Z,38.16
2018-09-18T13:06:00.715Z,37.06
2018-09-18T13:08:29.956Z,37.06
2018-09-18T13:10:58.874Z,38.54
2018-09-18T13:13:27.789Z,37.63
2018-09-18T13:15:56.711Z,37.45
2018-09-18T13:18:25.691Z,37.74
2018-09-18T13:20:54.636Z,37.34
2018-09-18T13:23:23.526Z,37.04
2018-09-18T13:25:52.446Z,37.55
2018-09-18T13:28:21.357Z,37.55
2018-09-18T13:30:50.274Z,37.81
2018-09-18T13:33:19.188Z,37.66
2018-09-18T13:35:48.095Z,37.14
2018-09-18T13:38:17.044Z,37.43
2018-09-18T13:40:45.970Z,36.24
2018-09-18T13:43:14.869Z,36.63
2018-09-18T13:45:43.780Z,36.31
2018-09-18T13:48:12.703Z,36.39
2018-09-18T13:50:41.625Z,37.01
2018-09-18T13:53:10.574Z,37.05
2018-09-18T13:55:41.023Z,37.40
2018-09-18T13:58:09.906Z,37.11
2018-09-18T14:00:38.863Z,36.45
2018-09-18T14:03:07.770Z,36.34
2018-09-18T14:05:36.745Z,36.96
2018-09-18T14:08:05.701Z,35.92
2018-09-18T14:10:34.571Z,36.43
2018-09-18T14:13:03.518Z,36.24
2018-09-18T14:15:32.490Z,36.51
2018-09-18T14:18:01.446Z,37.00
2018-09-18T14:20:30.386Z,36.78
2018-09-18T14:22:59.434Z,37.20
2018-09-18T14:25:28.947Z,37.06
2018-09-18T14:27:57.877Z,37.71
2018-09-18T14:30:26.834Z,38.12
2018-09-18T14:32:55.918Z,37.75
2018-09-18T14:35:24.822Z,36.94
2018-09-18T14:37:54.041Z,36.99
2018-09-18T14:40:22.995Z,37.91
2018-09-18T14:42:51.887Z,36.74
2018-09-18T14:45:20.954Z,36.32
2018-09-18T14:47:56.530Z,36.68
2018-09-18T14:50:25.430Z,36.82
2018-09-18T14:52:54.346Z,36.60
2018-09-18T14:55:23.295Z,36.82
2018-09-18T14:57:52.249Z,36.31
2018-09-18T15:00:21.197Z,36.92
2018-09-18T15:02:50.129Z,36.23
2018-09-18T15:05:19.090Z,36.09
2018-09-18T15:07:47.984Z,36.07
2018-09-18T15:10:16.935Z,36.13
2018-09-18T15:12:45.901Z,36.02
2018-09-18T15:15:14.852Z,35.71
2018-09-18T15:17:43.779Z,36.04
2018-09-18T15:20:12.764Z,34.90
2018-09-18T15:22:41.826Z,34.48
2018-09-18T15:25:10.743Z,35.23
2018-09-18T15:27:39.778Z,34.72
2018-09-18T15:30:08.622Z,34.09
2018-09-18T15:32:37.540Z,34.54
2018-09-18T15:35:06.470Z,33.99
2018-09-18T15:37:35.488Z,34.21
2018-09-18T15:40:04.548Z,33.34
2018-09-18T15:42:33.496Z,32.44
2018-09-18T15:45:02.482Z,32.41
2018-09-18T15:47:32.507Z,32.42
2018-09-18T15:50:01.513Z,32.65
2018-09-18T15:52:30.600Z,32.44
2018-09-18T15:54:59.677Z,32.38
2018-09-18T15:57:28.862Z,32.12
2018-09-18T15:59:57.842Z,32.19
2018-09-18T16:02:26.774Z,32.00
2018-09-18T16:04:55.773Z,32.12
2018-09-18T16:07:24.707Z,31.74
2018-09-18T16:09:53.814Z,31.35
2018-09-18T16:12:22.706Z,31.41
2018-09-18T16:14:51.816Z,31.14
2018-09-18T16:17:20.700Z,30.89
2018-09-18T16:19:49.597Z,30.76
2018-09-18T16:22:18.564Z,30.70
2018-09-18T16:24:47.477Z,30.33
2018-09-18T16:27:16.364Z,30.31
2018-09-18T16:29:45.347Z,30.32
2018-09-18T16:32:14.347Z,30.20
2018-09-18T16:34:43.255Z,30.05
2018-09-18T16:37:12.249Z,29.88
2018-09-18T16:39:41.181Z,29.68
2018-09-18T16:42:10.135Z,29.50
2018-09-18T16:44:39.022Z,29.38
2018-09-18T16:47:08.002Z,29.15
2018-09-18T16:49:36.945Z,29.00
2018-09-18T16:54:35.661Z,28.70
2018-09-18T16:57:04.466Z,28.46
2018-09-18T16:59:33.382Z,28.35
2018-09-18T17:02:02.327Z,28.14
2018-09-18T17:04:31.386Z,27.92
2018-09-18T17:07:00.291Z,27.72
2018-09-18T17:09:29.192Z,27.55
2018-09-18T17:11:58.113Z,27.41
2018-09-18T17:14:27.113Z,27.21
2018-09-18T17:16:56.026Z,27.03
2018-09-18T17:19:25.046Z,26.89
2018-09-18T17:21:54.334Z,26.80
2018-09-18T17:24:23.571Z,26.59
2018-09-18T17:26:52.524Z,26.49
2018-09-18T17:29:21.452Z,26.35
2018-09-18T17:31:50.410Z,26.11
2018-09-18T17:34:23.748Z,26.03
2018-09-18T17:36:52.670Z,25.90
2018-09-18T17:39:21.586Z,25.82
2018-09-18T17:41:50.662Z,25.73
2018-09-18T17:44:19.695Z,25.60
2018-09-18T17:46:48.597Z,25.56
2018-09-18T17:49:17.565Z,25.37
2018-09-18T17:51:46.474Z,25.37
2018-09-18T17:54:15.382Z,25.26
2018-09-18T17:56:44.377Z,25.31
2018-09-18T17:59:13.275Z,25.18
2018-09-18T18:01:42.289Z,25.06
2018-09-18T18:04:11.214Z,25.05
2018-09-18T18:06:40.182Z,24.97
2018-09-18T18:09:10.013Z,24.87
2018-09-18T18:11:39.240Z,24.65
2018-09-18T18:14:08.117Z,24.66
2018-09-18T18:16:37.105Z,24.64
2018-09-18T18:19:06.082Z,24.47
2018-09-18T18:21:35.015Z,24.53
2018-09-18T18:24:03.961Z,24.41
2018-09-18T18:26:33.089Z,24.30
2018-09-18T18:29:01.969Z,24.20
2018-09-18T18:31:30.884Z,24.18
2018-09-18T18:33:59.856Z,24.12
2018-09-18T18:36:28.779Z,24.06
2018-09-18T18:38:57.861Z,23.99
2018-09-18T18:41:26.937Z,23.86
2018-09-18T18:44:02.816Z,23.78
2018-09-18T18:46:31.763Z,23.65
2018-09-18T18:49:16.839Z,23.53
2018-09-18T18:51:46.856Z,23.51
2018-09-18T18:54:15.787Z,23.52
2018-09-18T18:56:44.805Z,23.39
2018-09-18T18:59:14.791Z,23.25
2018-09-18T19:01:44.764Z,23.23
2018-09-18T19:04:13.700Z,23.22
2018-09-18T19:06:42.677Z,23.17
2018-09-18T19:09:11.646Z,23.15
2018-09-18T19:11:40.585Z,23.11
2018-09-18T19:14:10.772Z,23.04
2018-09-18T19:16:39.778Z,22.87
2018-09-18T19:19:08.757Z,22.96
2018-09-18T19:21:37.687Z,22.93
2018-09-18T19:24:06.626Z,22.85
2018-09-18T19:26:35.609Z,22.81
2018-09-18T19:29:04.610Z,22.71
2018-09-18T19:31:33.522Z,22.65
2018-09-18T19:34:02.479Z,22.60
2018-09-18T19:36:31.455Z,22.41
2018-09-18T19:39:00.496Z,22.47
2018-09-18T19:41:29.381Z,22.50
2018-09-18T19:43:58.389Z,22.46
2018-09-18T19:46:27.341Z,22.41
2018-09-18T19:48:57.036Z,22.28
2018-09-18T19:51:25.981Z,22.34
2018-09-18T19:53:54.897Z,22.35
2018-09-18T19:56:23.824Z,22.18
2018-09-18T19:58:52.978Z,22.11
2018-09-18T20:01:22.006Z,22.11
2018-09-18T20:03:50.945Z,22.11
2018-09-18T20:06:19.891Z,21.97
2018-09-18T20:08:48.801Z,21.98
2018-09-18T20:11:17.793Z,21.97
2018-09-18T20:13:46.715Z,21.92
2018-09-18T20:16:15.732Z,21.84
2018-09-18T20:18:44.718Z,21.75
2018-09-18T20:21:13.637Z,21.67
2018-09-18T20:23:42.724Z,21.61
2018-09-18T20:26:11.665Z,21.66
2018-09-18T20:28:40.633Z,21.58
2018-09-18T20:31:09.552Z,21.53
2018-09-18T20:33:38.592Z,21.49
2018-09-18T20:36:07.837Z,21.37
2018-09-18T20:38:36.839Z,21.18
2018-09-18T20:41:06.119Z,21.22
2018-09-18T20:43:35.166Z,21.23
2018-09-18T20:46:04.107Z,21.02
2018-09-18T20:48:33.065Z,21.02
2018-09-18T20:51:02.006Z,21.07
2018-09-18T20:53:30.948Z,21.07
2018-09-18T20:55:59.971Z,21.03
2018-09-18T20:58:28.915Z,20.96
2018-09-18T21:00:57.885Z,20.90
2018-09-18T21:03:26.826Z,20.80
2018-09-18T21:05:55.760Z,20.85
2018-09-18T21:08:24.741Z,20.78
2018-09-18T21:10:53.646Z,20.77
2018-09-18T21:13:22.609Z,20.78
2018-09-18T21:15:51.534Z,20.79
2018-09-18T21:18:20.456Z,20.83
2018-09-18T21:20:49.406Z,20.74
2018-09-18T21:23:18.411Z,20.67
2018-09-18T21:26:03.902Z,20.62
2018-09-18T21:28:32.952Z,20.75
2018-09-18T21:31:02.100Z,20.75
2018-09-18T21:33:31.327Z,20.78
2018-09-18T21:36:00.625Z,20.80
2018-09-18T21:38:30.011Z,20.69
2018-09-18T21:40:59.007Z,20.76
2018-09-18T21:43:28.758Z,20.76
2018-09-18T21:45:57.685Z,20.68
2018-09-18T21:48:26.615Z,20.63
2018-09-18T21:50:55.642Z,20.53
2018-09-18T21:53:24.625Z,20.42
2018-09-18T21:55:53.576Z,20.39
2018-09-18T21:58:26.587Z,20.45
2018-09-18T22:00:55.547Z,20.28
2018-09-18T22:03:31.109Z,20.34
2018-09-18T22:06:00.150Z,20.33
2018-09-18T22:08:29.061Z,20.37
2018-09-18T22:10:57.985Z,20.38
2018-09-18T22:13:26.892Z,20.33
2018-09-18T22:15:55.811Z,20.33
2018-09-18T22:18:24.722Z,20.37
2018-09-18T22:20:53.654Z,20.36
2018-09-18T22:23:22.622Z,20.37
2018-09-18T22:25:51.538Z,20.35
2018-09-18T22:28:20.471Z,20.35
2018-09-18T22:30:49.452Z,20.25
2018-09-18T22:33:18.355Z,20.29
2018-09-18T22:35:47.249Z,20.34
2018-09-18T22:38:16.243Z,20.22
2018-09-18T22:40:45.178Z,20.11
2018-09-18T22:43:14.109Z,20.08
2018-09-18T22:45:43.015Z,20.04
2018-09-18T22:48:11.946Z,20.06
2018-09-18T22:50:40.869Z,19.99
2018-09-18T22:53:09.830Z,19.90
2018-09-18T22:55:38.729Z,19.91
2018-09-18T22:58:07.618Z,19.85
2018-09-18T23:00:36.560Z,19.84
2018-09-18T23:03:05.546Z,19.74
2018-09-18T23:05:34.443Z,19.73
2018-09-18T23:08:03.385Z,19.77
2018-09-18T23:10:32.276Z,19.72
2018-09-18T23:13:01.178Z,19.71
2018-09-18T23:15:30.140Z,19.68
2018-09-18T23:17:59.045Z,19.63
2018-09-18T23:20:27.954Z,19.57
2018-09-18T23:22:56.946Z,19.50
2018-09-18T23:25:25.855Z,19.47
2018-09-18T23:27:54.819Z,19.43
2018-09-18T23:30:23.746Z,19.42
2018-09-18T23:32:52.742Z,19.42
2018-09-18T23:35:21.673Z,19.35
2018-09-18T23:37:54.412Z,19.23
2018-09-18T23:40:23.371Z,19.15
2018-09-18T23:42:52.344Z,19.17
2018-09-18T23:45:21.252Z,19.17
2018-09-18T23:47:50.193Z,19.13
2018-09-18T23:50:19.142Z,19.15
2018-09-18T23:52:48.051Z,19.11
2018-09-18T23:55:16.963Z,19.14
2018-09-18T23:57:45.884Z,19.03
